createdAt,value
2022-12-14T00:01:49.119Z,152.40
2022-12-14T00:04:17.726Z,152.33
2022-12-14T00:06:46.109Z,152.30
2022-12-14T00:09:15.280Z,152.83
2022-12-14T00:11:43.068Z,152.90
2022-12-14T00:14:10.865Z,152.93
2022-12-14T00:16:38.671Z,152.23
2022-12-14T00:19:06.504Z,152.33
2022-12-14T00:21:34.330Z,151.83
2022-12-14T00:24:02.209Z,152.37
2022-12-14T00:26:32.760Z,152.80
2022-12-14T00:29:02.061Z,152.53
2022-12-14T00:31:31.015Z,152.47
2022-12-14T00:33:59.503Z,152.50
2022-12-14T00:36:27.798Z,153.03
2022-12-14T00:38:55.606Z,152.53
2022-12-14T00:41:23.863Z,152.00
2022-12-14T00:43:53.012Z,152.37
2022-12-14T00:46:20.856Z,152.17
2022-12-14T00:48:48.683Z,152.53
2022-12-14T00:51:16.510Z,152.70
2022-12-14T00:53:45.663Z,152.23
2022-12-14T00:56:13.560Z,152.27
2022-12-14T00:58:41.534Z,152.70
2022-12-14T01:01:14.247Z,152.17
2022-12-14T01:03:43.147Z,152.03
2022-12-14T01:06:15.373Z,152.70
2022-12-14T01:08:43.185Z,152.50
2022-12-14T01:11:11.942Z,152.60
2022-12-14T01:13:41.632Z,152.03
2022-12-14T01:16:12.935Z,152.27
2022-12-14T01:18:42.673Z,152.03
2022-12-14T01:21:12.393Z,152.57
2022-12-14T01:23:40.282Z,151.93
2022-12-14T01:26:08.097Z,151.87
2022-12-14T01:28:36.015Z,152.50
2022-12-14T01:31:08.960Z,151.93
2022-12-14T01:33:38.898Z,152.10
2022-12-14T01:36:08.275Z,152.20
2022-12-14T01:38:37.005Z,152.07
2022-12-14T01:41:06.256Z,152.03
2022-12-14T01:43:50.176Z,152.10
2022-12-14T01:46:22.381Z,151.40
2022-12-14T01:48:53.434Z,152.37
2022-12-14T01:51:21.333Z,152.10
2022-12-14T01:53:49.461Z,152.20
2022-12-14T01:56:18.562Z,152.50
2022-12-14T01:58:46.503Z,152.90
2022-12-14T02:01:14.830Z,152.27
2022-12-14T02:03:46.043Z,152.03
2022-12-14T02:06:21.945Z,152.23
2022-12-14T02:08:53.347Z,151.70
2022-12-14T02:11:30.189Z,152.30
2022-12-14T02:13:58.026Z,152.00
2022-12-14T02:16:25.896Z,151.83
2022-12-14T02:18:53.769Z,151.90
2022-12-14T02:21:39.573Z,152.03
2022-12-14T02:24:38.843Z,152.23
2022-12-14T02:27:14.396Z,152.40
2022-12-14T02:29:55.033Z,152.30
2022-12-14T02:32:46.508Z,152.30
2022-12-14T02:35:23.193Z,152.57
2022-12-14T02:38:00.269Z,151.60
2022-12-14T02:40:34.496Z,152.17
2022-12-14T02:43:12.704Z,151.53
2022-12-14T02:45:46.268Z,152.20
2022-12-14T02:48:19.443Z,151.67
2022-12-14T02:50:54.905Z,152.27
2022-12-14T02:53:29.141Z,152.20
2022-12-14T02:56:01.616Z,151.77
2022-12-14T02:58:34.469Z,152.23
2022-12-14T03:01:04.788Z,152.27
2022-12-14T03:03:32.651Z,152.27
2022-12-14T03:06:02.500Z,151.70
2022-12-14T03:08:34.729Z,152.23
2022-12-14T03:11:05.498Z,151.33
2022-12-14T03:13:37.807Z,151.60
2022-12-14T03:16:11.784Z,152.77
2022-12-14T03:18:46.342Z,152.37
2022-12-14T03:21:19.844Z,152.47
2022-12-14T03:23:50.590Z,151.97
2022-12-14T03:26:22.769Z,152.17
2022-12-14T03:28:55.354Z,151.90
2022-12-14T03:31:32.508Z,152.20
2022-12-14T03:34:03.737Z,152.00
2022-12-14T03:36:36.434Z,152.50
2022-12-14T03:39:08.370Z,151.57
2022-12-14T03:41:48.983Z,151.87
2022-12-14T03:44:27.341Z,152.20
2022-12-14T03:47:02.444Z,152.17
2022-12-14T03:49:45.784Z,151.03
2022-12-14T03:52:24.547Z,151.70
2022-12-14T03:55:08.877Z,151.73
2022-12-14T03:57:50.644Z,151.80
2022-12-14T04:00:23.195Z,152.30
2022-12-14T04:03:00.218Z,151.77
2022-12-14T04:05:35.537Z,152.50
2022-12-14T04:08:06.862Z,152.77
2022-12-14T04:10:58.277Z,152.63
2022-12-14T04:13:49.096Z,151.87
2022-12-14T04:16:39.416Z,151.40
2022-12-14T04:19:14.700Z,150.83
2022-12-14T04:21:46.072Z,151.70
2022-12-14T04:24:36.783Z,151.50
2022-12-14T04:27:10.945Z,151.53
2022-12-14T04:29:59.216Z,151.37
2022-12-14T04:32:32.119Z,151.10
2022-12-14T04:35:06.197Z,151.57
2022-12-14T04:37:37.076Z,151.43
2022-12-14T04:40:09.478Z,152.20
2022-12-14T04:42:42.966Z,151.97
2022-12-14T04:45:15.241Z,151.47
2022-12-14T04:47:47.698Z,151.93
2022-12-14T04:50:23.477Z,151.30
2022-12-14T04:52:56.037Z,151.47
2022-12-14T04:55:28.764Z,151.47
2022-12-14T04:58:01.752Z,151.63
2022-12-14T05:00:36.469Z,152.17
2022-12-14T05:03:20.731Z,151.40
2022-12-14T05:05:59.823Z,150.83
2022-12-14T05:08:55.157Z,151.30
2022-12-14T05:11:52.671Z,151.53
2022-12-14T05:14:21.620Z,151.13
2022-12-14T05:16:50.513Z,151.13
2022-12-14T05:19:18.446Z,152.23
2022-12-14T05:21:50.586Z,151.80
2022-12-14T05:24:18.862Z,151.17
2022-12-14T05:26:49.235Z,151.70
2022-12-14T05:29:17.711Z,151.07
2022-12-14T05:31:49.533Z,151.70
2022-12-14T05:34:18.744Z,151.80
2022-12-14T05:36:48.220Z,150.83
2022-12-14T05:39:16.968Z,152.33
2022-12-14T05:41:45.290Z,151.70
2022-12-14T05:44:13.197Z,151.77
2022-12-14T05:46:41.069Z,152.33
2022-12-14T05:49:09.286Z,151.40
2022-12-14T05:51:37.108Z,151.63
2022-12-14T05:54:06.404Z,151.70
2022-12-14T05:56:34.267Z,151.70
2022-12-14T05:59:02.484Z,151.13
2022-12-14T06:01:30.407Z,151.37
2022-12-14T06:03:58.309Z,151.50
2022-12-14T06:06:26.190Z,151.27
2022-12-14T06:08:54.010Z,151.23
2022-12-14T06:11:24.380Z,151.70
2022-12-14T06:13:52.667Z,151.97
2022-12-14T06:16:23.858Z,151.43
2022-12-14T06:18:53.079Z,151.33
2022-12-14T06:21:23.503Z,151.73
2022-12-14T06:23:51.273Z,150.93
2022-12-14T06:26:19.411Z,150.87
2022-12-14T06:28:48.773Z,151.47
2022-12-14T06:31:21.378Z,151.20
2022-12-14T06:33:49.594Z,151.53
2022-12-14T06:36:18.929Z,151.43
2022-12-14T06:38:47.291Z,151.23
2022-12-14T06:41:15.376Z,151.47
2022-12-14T06:43:43.430Z,151.30
2022-12-14T06:46:15.794Z,150.97
2022-12-14T06:48:44.526Z,151.67
2022-12-14T06:51:12.462Z,151.27
2022-12-14T06:53:40.264Z,151.53
2022-12-14T06:56:09.701Z,151.00
2022-12-14T06:58:37.639Z,151.57
2022-12-14T07:01:07.385Z,151.03
2022-12-14T07:03:37.050Z,151.77
2022-12-14T07:06:06.332Z,150.33
2022-12-14T07:08:36.321Z,151.10
2022-12-14T07:11:06.021Z,151.03
2022-12-14T07:13:34.064Z,151.70
2022-12-14T07:16:04.699Z,151.00
2022-12-14T07:18:33.082Z,151.23
2022-12-14T07:21:04.299Z,151.10
2022-12-14T07:23:34.316Z,150.93
2022-12-14T07:26:03.817Z,150.67
2022-12-14T07:28:32.075Z,150.67
2022-12-14T07:31:01.483Z,150.87
2022-12-14T07:33:29.896Z,151.27
2022-12-14T07:36:07.692Z,150.83
2022-12-14T07:38:36.378Z,150.87
2022-12-14T07:41:06.092Z,151.17
2022-12-14T07:43:35.001Z,151.07
2022-12-14T07:46:04.593Z,150.73
2022-12-14T07:48:32.954Z,150.50
2022-12-14T07:51:08.060Z,150.77
2022-12-14T07:53:36.440Z,151.23
2022-12-14T07:56:05.760Z,150.87
2022-12-14T07:58:34.875Z,150.87
2022-12-14T08:01:11.225Z,151.10
2022-12-14T08:03:40.025Z,150.30
2022-12-14T08:06:10.432Z,150.57
2022-12-14T08:08:38.308Z,150.27
2022-12-14T08:11:06.795Z,150.70
2022-12-14T08:13:35.135Z,150.97
2022-12-14T08:16:04.799Z,150.83
2022-12-14T08:18:33.158Z,150.97
2022-12-14T08:21:01.518Z,151.37
2022-12-14T08:23:31.216Z,150.83
2022-12-14T08:26:00.883Z,150.87
2022-12-14T08:28:31.034Z,149.93
2022-12-14T08:30:59.526Z,150.83
2022-12-14T08:33:27.808Z,150.73
2022-12-14T08:35:55.909Z,151.10
2022-12-14T08:38:23.727Z,150.67
2022-12-14T08:40:52.852Z,151.00
2022-12-14T08:43:25.013Z,151.10
2022-12-14T08:45:55.497Z,150.40
2022-12-14T08:48:23.488Z,150.60
2022-12-14T08:50:51.392Z,150.70
2022-12-14T08:53:19.300Z,150.97
2022-12-14T08:55:47.199Z,150.90
2022-12-14T08:58:17.786Z,151.23
2022-12-14T09:00:45.640Z,150.30
2022-12-14T09:03:13.574Z,151.00
2022-12-14T09:05:41.348Z,150.67
2022-12-14T09:08:09.140Z,150.63
2022-12-14T09:10:36.924Z,151.27
2022-12-14T09:13:04.725Z,150.70
2022-12-14T09:15:33.855Z,151.57
2022-12-14T09:18:01.702Z,151.33
2022-12-14T09:20:29.510Z,151.03
2022-12-14T09:22:57.374Z,151.33
2022-12-14T09:25:25.527Z,151.10
2022-12-14T09:27:53.447Z,150.87
2022-12-14T09:30:26.419Z,150.73
2022-12-14T09:32:56.066Z,151.50
2022-12-14T09:35:23.848Z,150.17
2022-12-14T09:37:51.980Z,151.83
2022-12-14T09:40:20.099Z,150.90
2022-12-14T09:42:58.704Z,150.97
2022-12-14T09:45:30.945Z,151.50
2022-12-14T09:48:06.052Z,151.03
2022-12-14T09:50:34.590Z,151.20
2022-12-14T09:53:06.214Z,151.43
2022-12-14T09:55:38.363Z,150.83
2022-12-14T09:58:13.781Z,151.77
2022-12-14T10:00:53.190Z,151.33
2022-12-14T10:03:39.633Z,151.80
2022-12-14T10:06:25.450Z,151.77
2022-12-14T10:09:02.886Z,151.73
2022-12-14T10:11:39.756Z,152.50
2022-12-14T10:14:18.782Z,152.60
2022-12-14T10:16:56.080Z,152.03
2022-12-14T10:19:36.716Z,152.33
2022-12-14T10:22:12.067Z,152.37
2022-12-14T10:24:44.120Z,152.83
2022-12-14T10:27:18.481Z,152.47
2022-12-14T10:29:49.886Z,152.80
2022-12-14T10:32:22.572Z,152.27
2022-12-14T10:34:52.432Z,152.40
2022-12-14T10:37:26.519Z,153.60
2022-12-14T10:40:22.314Z,152.60
2022-12-14T10:43:17.767Z,152.37
2022-12-14T10:45:56.588Z,152.90
2022-12-14T10:48:39.761Z,152.40
2022-12-14T10:51:12.052Z,152.33
2022-12-14T10:53:45.210Z,152.63
2022-12-14T10:56:19.127Z,152.50
2022-12-14T10:59:40.317Z,151.57
2022-12-14T11:02:16.876Z,152.43
2022-12-14T11:04:51.521Z,152.07
2022-12-14T11:07:23.071Z,151.93
2022-12-14T11:09:50.953Z,152.03
2022-12-14T11:12:22.748Z,153.13
2022-12-14T11:14:57.128Z,153.07
2022-12-14T11:17:33.538Z,152.47
2022-12-14T11:20:14.793Z,152.50
2022-12-14T11:22:47.529Z,152.53
2022-12-14T11:25:30.522Z,152.83
2022-12-14T11:27:59.598Z,152.73
2022-12-14T11:30:28.590Z,152.73
2022-12-14T11:32:56.535Z,152.37
2022-12-14T11:35:24.697Z,151.80
2022-12-14T11:38:00.385Z,151.90
2022-12-14T11:40:28.951Z,152.47
2022-12-14T11:43:02.545Z,152.50
2022-12-14T11:45:32.551Z,152.27
2022-12-14T11:48:21.936Z,152.80
2022-12-14T11:50:51.013Z,152.03
2022-12-14T11:53:22.297Z,152.20
2022-12-14T11:55:54.610Z,152.03
2022-12-14T11:58:26.075Z,152.67
2022-12-14T12:00:59.334Z,152.77
2022-12-14T12:03:31.705Z,152.97
2022-12-14T12:06:05.998Z,152.40
2022-12-14T12:08:38.699Z,153.07
2022-12-14T12:11:16.470Z,152.33
2022-12-14T12:13:47.742Z,152.57
2022-12-14T12:16:17.695Z,152.53
2022-12-14T12:18:49.489Z,152.97
2022-12-14T12:21:22.354Z,152.27
2022-12-14T12:23:58.126Z,151.67
2022-12-14T12:26:30.222Z,151.77
2022-12-14T12:29:03.127Z,152.20
2022-12-14T12:31:35.875Z,151.70
2022-12-14T12:34:09.971Z,151.77
2022-12-14T12:36:51.541Z,151.93
2022-12-14T12:39:29.183Z,152.30
2022-12-14T12:42:07.295Z,152.00
2022-12-14T12:44:49.905Z,151.97
2022-12-14T12:47:29.959Z,152.10
2022-12-14T12:50:06.317Z,152.13
2022-12-14T12:52:40.316Z,151.50
2022-12-14T12:55:16.390Z,152.00
2022-12-14T12:57:47.313Z,151.30
2022-12-14T13:00:18.264Z,152.93
2022-12-14T13:02:50.326Z,152.07
2022-12-14T13:08:20.428Z,151.73
2022-12-14T13:13:44.062Z,151.37
2022-12-14T13:16:21.477Z,151.70
2022-12-14T13:19:08.748Z,151.30
2022-12-14T13:21:49.933Z,151.90
2022-12-14T13:24:19.806Z,152.97
2022-12-14T13:27:26.092Z,151.83
2022-12-14T13:30:05.321Z,152.00
2022-12-14T13:32:46.877Z,151.17
2022-12-14T13:35:33.671Z,151.07
2022-12-14T13:38:33.130Z,150.90
2022-12-14T13:41:18.757Z,151.10
2022-12-14T13:44:05.049Z,151.83
2022-12-14T13:46:33.183Z,150.87
2022-12-14T13:49:05.968Z,151.17
2022-12-14T13:51:38.399Z,151.67
2022-12-14T13:54:18.829Z,151.83
2022-12-14T13:56:47.085Z,150.83
2022-12-14T13:59:29.291Z,151.37
2022-12-14T14:01:59.821Z,151.23
2022-12-14T14:04:29.710Z,151.43
2022-12-14T14:07:19.017Z,151.57
2022-12-14T14:10:00.254Z,151.07
2022-12-14T14:12:37.596Z,152.00
2022-12-14T14:15:25.832Z,152.07
2022-12-14T14:17:55.801Z,151.10
2022-12-14T14:20:37.502Z,151.47
2022-12-14T14:23:38.954Z,151.40
2022-12-14T14:26:31.021Z,150.93
2022-12-14T14:29:23.211Z,151.03
2022-12-14T14:32:01.015Z,151.07
2022-12-14T14:34:36.588Z,151.53
2022-12-14T14:37:29.601Z,151.00
2022-12-14T14:40:23.927Z,150.70
2022-12-14T14:43:05.436Z,151.00
2022-12-14T14:45:40.917Z,150.63
2022-12-14T14:48:24.191Z,151.13
2022-12-14T14:51:16.867Z,150.63
2022-12-14T14:53:45.220Z,150.67
2022-12-14T14:56:37.020Z,151.07
2022-12-14T14:59:38.386Z,150.67
2022-12-14T15:02:31.146Z,151.73
2022-12-14T15:05:24.879Z,150.67
2022-12-14T15:07:50.050Z,150.80
2022-12-14T15:10:25.157Z,151.00
2022-12-14T15:12:55.666Z,150.43
2022-12-14T15:15:29.965Z,150.73
2022-12-14T15:18:16.003Z,151.03
2022-12-14T15:20:54.441Z,151.90
2022-12-14T15:23:22.745Z,151.07
2022-12-14T15:25:57.917Z,150.83
2022-12-14T15:28:27.965Z,151.07
2022-12-14T15:30:58.373Z,151.03
2022-12-14T15:33:30.321Z,151.50
2022-12-14T15:36:06.775Z,150.53
2022-12-14T15:38:36.823Z,150.53
2022-12-14T15:41:06.977Z,150.53
2022-12-14T15:43:34.795Z,151.10
2022-12-14T15:46:04.043Z,151.20
2022-12-14T15:48:34.264Z,151.13
2022-12-14T15:51:06.307Z,150.73
2022-12-14T15:53:37.377Z,151.07
2022-12-14T15:56:18.998Z,150.60
2022-12-14T15:58:47.545Z,150.77
2022-12-14T16:01:23.117Z,150.97
2022-12-14T16:03:53.484Z,151.23
2022-12-14T16:06:24.284Z,151.53
2022-12-14T16:08:56.000Z,150.60
2022-12-14T16:11:27.311Z,150.57
2022-12-14T16:13:57.461Z,151.40
2022-12-14T16:16:25.686Z,150.90
2022-12-14T16:18:54.284Z,150.83
2022-12-14T16:21:32.860Z,151.00
2022-12-14T16:24:01.918Z,151.03
2022-12-14T16:26:36.125Z,151.23
2022-12-14T16:29:19.642Z,151.37
2022-12-14T16:31:49.960Z,151.27
2022-12-14T16:34:23.390Z,151.67
2022-12-14T16:37:30.384Z,150.47
2022-12-14T16:39:49.465Z,150.80
2022-12-14T16:42:21.093Z,150.27
2022-12-14T16:44:49.505Z,150.50
2022-12-14T16:47:49.745Z,151.07
2022-12-14T16:53:23.096Z,150.77
2022-12-14T16:56:06.581Z,150.70
2022-12-14T16:58:35.845Z,150.80
2022-12-14T17:01:06.921Z,150.27
2022-12-14T17:03:36.395Z,151.20
2022-12-14T17:06:07.109Z,151.20
2022-12-14T17:08:36.301Z,151.50
2022-12-14T17:11:04.225Z,150.93
2022-12-14T17:13:32.494Z,151.27
2022-12-14T17:16:03.635Z,151.43
2022-12-14T17:18:34.887Z,150.97
2022-12-14T17:21:03.294Z,151.70
2022-12-14T17:23:31.486Z,151.37
2022-12-14T17:26:00.885Z,150.53
2022-12-14T17:28:30.949Z,150.83
2022-12-14T17:31:01.610Z,150.80
2022-12-14T17:33:31.507Z,150.87
2022-12-14T17:35:59.614Z,150.97
2022-12-14T17:38:27.396Z,150.83
2022-12-14T17:40:56.010Z,151.27
2022-12-14T17:43:27.687Z,151.20
2022-12-14T17:45:56.563Z,150.93
2022-12-14T17:48:24.483Z,151.27
2022-12-14T17:50:52.400Z,150.87
2022-12-14T17:53:26.661Z,151.07
2022-12-14T17:55:54.677Z,151.73
2022-12-14T17:58:22.758Z,152.50
2022-12-14T18:01:03.471Z,151.00
2022-12-14T18:03:36.069Z,151.20
2022-12-14T18:06:04.855Z,151.17
2022-12-14T18:08:32.772Z,151.53
2022-12-14T18:11:02.946Z,151.03
2022-12-14T18:13:32.349Z,151.73
2022-12-14T18:16:01.896Z,151.70
2022-12-14T18:18:29.912Z,151.13
2022-12-14T18:21:00.334Z,150.97
2022-12-14T18:23:30.077Z,151.63
2022-12-14T18:26:00.251Z,150.63
2022-12-14T18:28:28.108Z,151.37
2022-12-14T18:30:59.329Z,150.90
2022-12-14T18:33:29.591Z,151.17
2022-12-14T18:35:58.242Z,152.13
2022-12-14T18:38:26.707Z,150.97
2022-12-14T18:40:58.353Z,151.33
2022-12-14T18:43:28.616Z,150.70
2022-12-14T18:45:57.561Z,150.90
2022-12-14T18:48:27.769Z,151.57
2022-12-14T18:50:56.597Z,150.70
2022-12-14T18:53:25.877Z,150.77
2022-12-14T18:55:54.464Z,151.03
2022-12-14T18:58:24.410Z,151.00
2022-12-14T19:00:55.133Z,151.47
2022-12-14T19:03:23.714Z,151.10
2022-12-14T19:06:26.740Z,150.83
2022-12-14T19:08:50.601Z,150.40
2022-12-14T19:11:27.567Z,151.07
2022-12-14T19:13:55.499Z,151.23
2022-12-14T19:16:24.655Z,150.30
2022-12-14T19:18:52.836Z,151.03
2022-12-14T19:21:23.562Z,151.07
2022-12-14T19:23:51.418Z,151.43
2022-12-14T19:26:19.332Z,151.43
2022-12-14T19:28:47.223Z,150.73
2022-12-14T19:31:15.134Z,151.10
2022-12-14T19:33:43.068Z,150.70
2022-12-14T19:36:11.750Z,151.33
2022-12-14T19:38:40.970Z,150.70
2022-12-14T19:41:11.795Z,151.60
2022-12-14T19:43:40.040Z,150.37
2022-12-14T19:46:09.018Z,150.43
2022-12-14T19:48:37.740Z,150.53
2022-12-14T19:51:06.736Z,151.10
2022-12-14T19:53:35.978Z,150.80
2022-12-14T19:56:06.357Z,150.43
2022-12-14T19:58:34.311Z,150.67
2022-12-14T20:01:02.573Z,150.83
2022-12-14T20:03:30.964Z,150.63
2022-12-14T20:06:00.179Z,151.17
2022-12-14T20:08:29.963Z,150.83
2022-12-14T20:10:58.818Z,150.20
2022-12-14T20:13:29.532Z,151.17
2022-12-14T20:15:59.018Z,150.17
2022-12-14T20:18:27.926Z,150.90
2022-12-14T20:21:02.582Z,150.43
2022-12-14T20:23:32.511Z,150.43
2022-12-14T20:26:01.948Z,150.03
2022-12-14T20:28:31.162Z,150.47
2022-12-14T20:31:00.386Z,150.73
2022-12-14T20:33:30.830Z,150.40
2022-12-14T20:35:59.268Z,150.70
2022-12-14T20:38:27.509Z,150.33
2022-12-14T20:40:55.636Z,150.63
2022-12-14T20:43:23.521Z,151.37
2022-12-14T20:45:52.743Z,150.30
2022-12-14T20:48:20.800Z,150.20
2022-12-14T20:50:50.412Z,150.67
2022-12-14T20:53:20.118Z,150.10
2022-12-14T20:55:48.029Z,150.43
2022-12-14T20:58:15.900Z,150.80
2022-12-14T21:00:43.840Z,150.77
2022-12-14T21:03:13.262Z,150.40
2022-12-14T21:05:41.904Z,151.00
2022-12-14T21:08:10.462Z,150.40
2022-12-14T21:10:38.381Z,150.07
2022-12-14T21:13:07.826Z,150.63
2022-12-14T21:15:36.497Z,150.57
2022-12-14T21:18:04.580Z,150.17
2022-12-14T21:20:33.951Z,150.63
2022-12-14T21:23:01.824Z,150.70
2022-12-14T21:25:29.661Z,150.43
2022-12-14T21:27:57.531Z,150.00
2022-12-14T21:30:25.401Z,150.50
2022-12-14T21:32:53.273Z,150.70
2022-12-14T21:35:21.142Z,150.63
2022-12-14T21:37:50.368Z,151.00
2022-12-14T21:40:32.228Z,151.20
2022-12-14T21:43:00.111Z,150.17
2022-12-14T21:45:28.090Z,151.30
2022-12-14T21:47:56.038Z,150.90
2022-12-14T21:50:23.914Z,150.03
2022-12-14T21:52:53.158Z,150.20
2022-12-14T21:55:21.015Z,150.47
2022-12-14T21:58:06.227Z,151.40
2022-12-14T22:00:34.086Z,150.93
2022-12-14T22:03:02.224Z,150.30
2022-12-14T22:05:30.169Z,150.40
2022-12-14T22:08:00.830Z,149.83
2022-12-14T22:10:28.665Z,150.57
2022-12-14T22:12:56.486Z,150.40
2022-12-14T22:15:24.296Z,150.70
2022-12-14T22:17:52.447Z,149.97
2022-12-14T22:20:20.549Z,150.50
2022-12-14T22:22:48.357Z,150.13
2022-12-14T22:25:17.684Z,150.60
2022-12-14T22:27:50.182Z,150.43
2022-12-14T22:30:18.454Z,150.50
2022-12-14T22:32:46.260Z,150.33
2022-12-14T22:35:14.132Z,149.80
2022-12-14T22:37:41.943Z,150.50
2022-12-14T22:40:10.813Z,150.53
2022-12-14T22:42:39.949Z,150.10
2022-12-14T22:45:08.665Z,150.23
2022-12-14T22:47:36.469Z,150.70
2022-12-14T22:50:05.626Z,150.30
2022-12-14T22:52:33.532Z,150.17
2022-12-14T22:55:01.651Z,150.30
2022-12-14T22:57:30.549Z,150.60
2022-12-14T23:00:02.225Z,150.67
2022-12-14T23:02:30.939Z,150.23
2022-12-14T23:04:58.874Z,150.13
2022-12-14T23:07:26.705Z,150.37
2022-12-14T23:10:12.086Z,150.53
2022-12-14T23:12:57.730Z,149.97
2022-12-14T23:15:44.537Z,150.53
2022-12-14T23:18:30.064Z,150.47
2022-12-14T23:21:15.601Z,150.17
2022-12-14T23:24:03.531Z,150.70
2022-12-14T23:26:50.078Z,150.80
2022-12-14T23:29:35.590Z,150.20
2022-12-14T23:32:22.746Z,150.20
2022-12-14T23:35:08.700Z,150.47
2022-12-14T23:37:54.257Z,150.63
2022-12-14T23:40:39.692Z,150.50
2022-12-14T23:43:28.946Z,150.07
2022-12-14T23:46:14.538Z,149.77
2022-12-14T23:49:01.194Z,150.47
2022-12-14T23:51:47.121Z,149.93
2022-12-14T23:54:32.503Z,149.93
2022-12-14T23:57:17.849Z,150.97
